sensor_id;sensor_type;location;lat;lon;timestamp;temperature;humidity
5017;DHT22;2527;50.892;16.706;2023-11-21T00:01:04;11.90;99.90
5017;DHT22;2527;50.892;16.706;2023-11-21T00:03:30;11.90;99.90
5017;DHT22;2527;50.892;16.706;2023-11-21T00:05:56;11.90;99.90
5017;DHT22;2527;50.892;16.706;2023-11-21T00:08:23;11.90;99.90
5017;DHT22;2527;50.892;16.706;2023-11-21T00:10:49;11.90;99.90
5017;DHT22;2527;50.892;16.706;2023-11-21T00:13:16;11.90;99.90
5017;DHT22;2527;50.892;16.706;2023-11-21T00:15:42;11.90;99.90
5017;DHT22;2527;50.892;16.706;2023-11-21T00:18:07;11.90;99.90
5017;DHT22;2527;50.892;16.706;2023-11-21T00:20:33;11.90;99.90
5017;DHT22;2527;50.892;16.706;2023-11-21T00:22:59;11.90;99.90
5017;DHT22;2527;50.892;16.706;2023-11-21T00:25:25;11.90;99.90
5017;DHT22;2527;50.892;16.706;2023-11-21T00:27:51;11.80;99.90
5017;DHT22;2527;50.892;16.706;2023-11-21T00:30:16;11.90;99.90
5017;DHT22;2527;50.892;16.706;2023-11-21T00:32:42;11.90;99.90
5017;DHT22;2527;50.892;16.706;2023-11-21T00:35:08;11.90;99.90
5017;DHT22;2527;50.892;16.706;2023-11-21T00:37:34;11.90;99.90
5017;DHT22;2527;50.892;16.706;2023-11-21T00:40:01;11.90;99.90
5017;DHT22;2527;50.892;16.706;2023-11-21T00:42:30;11.90;99.90
5017;DHT22;2527;50.892;16.706;2023-11-21T00:44:57;11.90;99.90
5017;DHT22;2527;50.892;16.706;2023-11-21T00:47:23;11.90;99.90
5017;DHT22;2527;50.892;16.706;2023-11-21T00:49:49;11.90;99.90
5017;DHT22;2527;50.892;16.706;2023-11-21T00:52:16;11.90;99.90
5017;DHT22;2527;50.892;16.706;2023-11-21T00:54:41;11.90;99.90
5017;DHT22;2527;50.892;16.706;2023-11-21T00:57:08;11.90;99.90
5017;DHT22;2527;50.892;16.706;2023-11-21T00:59:36;11.90;99.90
5017;DHT22;2527;50.892;16.706;2023-11-21T01:02:02;11.90;99.90
5017;DHT22;2527;50.892;16.706;2023-11-21T01:04:30;11.90;99.90
5017;DHT22;2527;50.892;16.706;2023-11-21T01:06:57;11.90;99.90
5017;DHT22;2527;50.892;16.706;2023-11-21T01:09:22;11.90;99.90
5017;DHT22;2527;50.892;16.706;2023-11-21T01:11:48;11.90;99.90
5017;DHT22;2527;50.892;16.706;2023-11-21T01:14:14;11.90;99.90
5017;DHT22;2527;50.892;16.706;2023-11-21T01:16:40;11.90;99.90
5017;DHT22;2527;50.892;16.706;2023-11-21T01:19:06;11.90;99.90
5017;DHT22;2527;50.892;16.706;2023-11-21T01:21:32;11.90;99.90
5017;DHT22;2527;50.892;16.706;2023-11-21T01:23:59;11.90;99.90
5017;DHT22;2527;50.892;16.706;2023-11-21T01:26:24;11.90;99.90
5017;DHT22;2527;50.892;16.706;2023-11-21T01:28:50;11.90;99.90
5017;DHT22;2527;50.892;16.706;2023-11-21T01:31:16;11.90;99.90
5017;DHT22;2527;50.892;16.706;2023-11-21T01:33:41;11.90;99.90
5017;DHT22;2527;50.892;16.706;2023-11-21T01:36:07;11.90;99.90
5017;DHT22;2527;50.892;16.706;2023-11-21T01:38:33;11.90;99.90
5017;DHT22;2527;50.892;16.706;2023-11-21T01:41:00;11.90;99.90
5017;DHT22;2527;50.892;16.706;2023-11-21T01:43:26;11.90;99.90
5017;DHT22;2527;50.892;16.706;2023-11-21T01:45:55;11.90;99.90
5017;DHT22;2527;50.892;16.706;2023-11-21T01:48:24;11.90;99.90
5017;DHT22;2527;50.892;16.706;2023-11-21T01:50:50;11.90;99.90
5017;DHT22;2527;50.892;16.706;2023-11-21T01:53:16;11.90;99.90
5017;DHT22;2527;50.892;16.706;2023-11-21T01:55:44;11.90;99.90
5017;DHT22;2527;50.892;16.706;2023-11-21T01:58:11;11.90;99.90
5017;DHT22;2527;50.892;16.706;2023-11-21T02:00:37;11.90;99.90
5017;DHT22;2527;50.892;16.706;2023-11-21T02:03:04;11.90;99.90
5017;DHT22;2527;50.892;16.706;2023-11-21T02:05:29;11.90;99.90
5017;DHT22;2527;50.892;16.706;2023-11-21T02:07:55;11.90;99.90
5017;DHT22;2527;50.892;16.706;2023-11-21T02:10:21;11.90;99.90
5017;DHT22;2527;50.892;16.706;2023-11-21T02:12:50;11.90;99.90
5017;DHT22;2527;50.892;16.706;2023-11-21T02:15:16;11.90;99.90
5017;DHT22;2527;50.892;16.706;2023-11-21T02:17:49;11.90;99.90
5017;DHT22;2527;50.892;16.706;2023-11-21T02:20:19;11.90;99.90
5017;DHT22;2527;50.892;16.706;2023-11-21T02:23:03;11.90;99.90
5017;DHT22;2527;50.892;16.706;2023-11-21T02:25:31;11.90;99.90
5017;DHT22;2527;50.892;16.706;2023-11-21T02:28:00;11.90;99.90
5017;DHT22;2527;50.892;16.706;2023-11-21T02:30:27;11.90;99.90
5017;DHT22;2527;50.892;16.706;2023-11-21T02:32:53;11.90;99.90
5017;DHT22;2527;50.892;16.706;2023-11-21T02:35:19;11.90;99.90
5017;DHT22;2527;50.892;16.706;2023-11-21T02:37:48;11.90;99.90
5017;DHT22;2527;50.892;16.706;2023-11-21T02:40:14;11.90;99.90
5017;DHT22;2527;50.892;16.706;2023-11-21T02:42:44;11.90;99.90
5017;DHT22;2527;50.892;16.706;2023-11-21T02:45:09;11.90;99.90
5017;DHT22;2527;50.892;16.706;2023-11-21T02:47:38;12.00;99.90
5017;DHT22;2527;50.892;16.706;2023-11-21T02:50:03;11.90;99.90
5017;DHT22;2527;50.892;16.706;2023-11-21T02:52:29;11.90;99.90
5017;DHT22;2527;50.892;16.706;2023-11-21T02:54:56;11.90;99.90
5017;DHT22;2527;50.892;16.706;2023-11-21T02:57:21;12.00;99.90
5017;DHT22;2527;50.892;16.706;2023-11-21T02:59:48;12.00;99.90
5017;DHT22;2527;50.892;16.706;2023-11-21T03:02:14;11.90;99.90
5017;DHT22;2527;50.892;16.706;2023-11-21T03:04:41;11.90;99.90
5017;DHT22;2527;50.892;16.706;2023-11-21T03:07:08;11.90;99.90
5017;DHT22;2527;50.892;16.706;2023-11-21T03:09:34;11.90;99.90
5017;DHT22;2527;50.892;16.706;2023-11-21T03:12:00;11.90;99.90
5017;DHT22;2527;50.892;16.706;2023-11-21T03:14:26;11.90;99.90
5017;DHT22;2527;50.892;16.706;2023-11-21T03:16:53;11.90;99.90
5017;DHT22;2527;50.892;16.706;2023-11-21T03:19:18;11.90;99.90
5017;DHT22;2527;50.892;16.706;2023-11-21T03:21:44;12.00;99.90
5017;DHT22;2527;50.892;16.706;2023-11-21T03:24:10;11.90;99.90
5017;DHT22;2527;50.892;16.706;2023-11-21T03:26:36;12.00;99.90
5017;DHT22;2527;50.892;16.706;2023-11-21T03:29:03;11.90;99.90
5017;DHT22;2527;50.892;16.706;2023-11-21T03:31:30;11.90;99.90
5017;DHT22;2527;50.892;16.706;2023-11-21T03:33:55;11.90;99.90
5017;DHT22;2527;50.892;16.706;2023-11-21T03:36:21;11.90;99.90
5017;DHT22;2527;50.892;16.706;2023-11-21T03:38:47;11.90;99.90
5017;DHT22;2527;50.892;16.706;2023-11-21T03:41:13;11.90;99.90
5017;DHT22;2527;50.892;16.706;2023-11-21T03:43:40;11.90;99.90
5017;DHT22;2527;50.892;16.706;2023-11-21T03:46:05;11.90;99.90
5017;DHT22;2527;50.892;16.706;2023-11-21T03:48:31;11.90;99.90
5017;DHT22;2527;50.892;16.706;2023-11-21T03:50:58;11.90;99.90
5017;DHT22;2527;50.892;16.706;2023-11-21T03:53:24;11.90;99.90
5017;DHT22;2527;50.892;16.706;2023-11-21T03:55:49;11.90;99.90
5017;DHT22;2527;50.892;16.706;2023-11-21T03:58:15;11.90;99.90
5017;DHT22;2527;50.892;16.706;2023-11-21T04:00:40;11.90;99.90
5017;DHT22;2527;50.892;16.706;2023-11-21T04:03:06;11.90;99.90
5017;DHT22;2527;50.892;16.706;2023-11-21T04:05:32;11.90;99.90
5017;DHT22;2527;50.892;16.706;2023-11-21T04:07:58;11.90;99.90
5017;DHT22;2527;50.892;16.706;2023-11-21T04:10:23;11.90;99.90
5017;DHT22;2527;50.892;16.706;2023-11-21T04:12:50;11.90;99.90
5017;DHT22;2527;50.892;16.706;2023-11-21T04:15:16;11.90;99.90
5017;DHT22;2527;50.892;16.706;2023-11-21T04:17:42;11.90;99.90
5017;DHT22;2527;50.892;16.706;2023-11-21T04:20:08;11.90;99.90
5017;DHT22;2527;50.892;16.706;2023-11-21T04:22:36;11.90;99.90
5017;DHT22;2527;50.892;16.706;2023-11-21T04:25:03;11.80;99.90
5017;DHT22;2527;50.892;16.706;2023-11-21T04:27:29;11.90;99.90
5017;DHT22;2527;50.892;16.706;2023-11-21T04:29:56;11.90;99.90
5017;DHT22;2527;50.892;16.706;2023-11-21T04:32:21;11.90;99.90
5017;DHT22;2527;50.892;16.706;2023-11-21T04:34:47;11.90;99.90
5017;DHT22;2527;50.892;16.706;2023-11-21T04:37:12;11.90;99.90
5017;DHT22;2527;50.892;16.706;2023-11-21T04:39:38;11.90;99.90
5017;DHT22;2527;50.892;16.706;2023-11-21T04:42:04;11.90;99.90
5017;DHT22;2527;50.892;16.706;2023-11-21T04:44:29;11.80;99.90
5017;DHT22;2527;50.892;16.706;2023-11-21T04:46:56;11.90;99.90
5017;DHT22;2527;50.892;16.706;2023-11-21T04:49:22;11.80;99.90
5017;DHT22;2527;50.892;16.706;2023-11-21T04:51:48;11.80;99.90
5017;DHT22;2527;50.892;16.706;2023-11-21T04:54:14;11.90;99.90
5017;DHT22;2527;50.892;16.706;2023-11-21T04:56:40;11.90;99.90
5017;DHT22;2527;50.892;16.706;2023-11-21T04:59:05;11.80;99.90
5017;DHT22;2527;50.892;16.706;2023-11-21T05:01:32;11.80;99.90
5017;DHT22;2527;50.892;16.706;2023-11-21T05:03:58;11.90;99.90
5017;DHT22;2527;50.892;16.706;2023-11-21T05:06:24;11.90;99.90
5017;DHT22;2527;50.892;16.706;2023-11-21T05:08:49;11.90;99.90
5017;DHT22;2527;50.892;16.706;2023-11-21T05:11:28;11.80;99.90
5017;DHT22;2527;50.892;16.706;2023-11-21T05:13:54;11.80;99.90
5017;DHT22;2527;50.892;16.706;2023-11-21T05:16:25;11.80;99.90
5017;DHT22;2527;50.892;16.706;2023-11-21T05:18:55;11.80;99.90
5017;DHT22;2527;50.892;16.706;2023-11-21T05:21:26;11.80;99.90
5017;DHT22;2527;50.892;16.706;2023-11-21T05:23:51;11.80;99.90
5017;DHT22;2527;50.892;16.706;2023-11-21T05:26:18;11.80;99.90
5017;DHT22;2527;50.892;16.706;2023-11-21T05:28:43;11.80;99.90
5017;DHT22;2527;50.892;16.706;2023-11-21T05:31:10;11.80;99.90
5017;DHT22;2527;50.892;16.706;2023-11-21T05:33:37;11.80;99.90
5017;DHT22;2527;50.892;16.706;2023-11-21T05:36:03;11.80;99.90
5017;DHT22;2527;50.892;16.706;2023-11-21T05:38:29;11.80;99.90
5017;DHT22;2527;50.892;16.706;2023-11-21T05:40:55;11.80;99.90
5017;DHT22;2527;50.892;16.706;2023-11-21T05:43:20;11.80;99.90
5017;DHT22;2527;50.892;16.706;2023-11-21T05:45:46;11.80;99.90
5017;DHT22;2527;50.892;16.706;2023-11-21T05:48:12;11.80;99.90
5017;DHT22;2527;50.892;16.706;2023-11-21T05:50:38;11.80;99.90
5017;DHT22;2527;50.892;16.706;2023-11-21T05:53:04;11.80;99.90
5017;DHT22;2527;50.892;16.706;2023-11-21T05:55:30;11.80;99.90
5017;DHT22;2527;50.892;16.706;2023-11-21T05:57:56;11.80;99.90
5017;DHT22;2527;50.892;16.706;2023-11-21T06:00:22;11.80;99.90
5017;DHT22;2527;50.892;16.706;2023-11-21T06:02:49;11.80;99.90
5017;DHT22;2527;50.892;16.706;2023-11-21T06:05:18;11.70;99.90
5017;DHT22;2527;50.892;16.706;2023-11-21T06:07:45;11.60;99.90
5017;DHT22;2527;50.892;16.706;2023-11-21T06:10:11;11.70;99.90
5017;DHT22;2527;50.892;16.706;2023-11-21T06:12:40;11.70;99.90
5017;DHT22;2527;50.892;16.706;2023-11-21T06:15:08;11.70;99.90
5017;DHT22;2527;50.892;16.706;2023-11-21T06:17:35;11.70;99.90
5017;DHT22;2527;50.892;16.706;2023-11-21T06:20:05;11.70;99.90
5017;DHT22;2527;50.892;16.706;2023-11-21T06:22:44;11.70;99.90
5017;DHT22;2527;50.892;16.706;2023-11-21T06:25:10;11.70;99.90
5017;DHT22;2527;50.892;16.706;2023-11-21T06:27:42;11.70;99.90
5017;DHT22;2527;50.892;16.706;2023-11-21T06:30:08;11.70;99.90
5017;DHT22;2527;50.892;16.706;2023-11-21T06:32:35;11.70;99.90
5017;DHT22;2527;50.892;16.706;2023-11-21T06:35:01;11.70;99.90
5017;DHT22;2527;50.892;16.706;2023-11-21T06:37:28;11.70;99.90
5017;DHT22;2527;50.892;16.706;2023-11-21T06:39:56;11.70;99.90
5017;DHT22;2527;50.892;16.706;2023-11-21T06:42:22;11.70;99.90
5017;DHT22;2527;50.892;16.706;2023-11-21T06:44:48;11.70;99.90
5017;DHT22;2527;50.892;16.706;2023-11-21T06:47:14;11.70;99.90
5017;DHT22;2527;50.892;16.706;2023-11-21T06:49:41;11.70;99.90
5017;DHT22;2527;50.892;16.706;2023-11-21T06:52:06;11.70;99.90
5017;DHT22;2527;50.892;16.706;2023-11-21T06:54:36;11.70;99.90
5017;DHT22;2527;50.892;16.706;2023-11-21T06:57:02;11.70;99.90
5017;DHT22;2527;50.892;16.706;2023-11-21T06:59:28;11.70;99.90
5017;DHT22;2527;50.892;16.706;2023-11-21T07:01:54;11.70;99.90
5017;DHT22;2527;50.892;16.706;2023-11-21T07:04:20;11.70;99.90
5017;DHT22;2527;50.892;16.706;2023-11-21T07:06:46;11.70;99.90
5017;DHT22;2527;50.892;16.706;2023-11-21T07:09:11;11.60;99.90
5017;DHT22;2527;50.892;16.706;2023-11-21T07:11:38;11.70;99.90
5017;DHT22;2527;50.892;16.706;2023-11-21T07:14:04;11.70;99.90
5017;DHT22;2527;50.892;16.706;2023-11-21T07:16:36;11.70;99.90
5017;DHT22;2527;50.892;16.706;2023-11-21T07:19:03;11.70;99.90
5017;DHT22;2527;50.892;16.706;2023-11-21T07:21:31;11.70;99.90
5017;DHT22;2527;50.892;16.706;2023-11-21T07:23:57;11.70;99.90
5017;DHT22;2527;50.892;16.706;2023-11-21T07:26:23;11.70;99.90
5017;DHT22;2527;50.892;16.706;2023-11-21T07:28:51;11.70;99.90
5017;DHT22;2527;50.892;16.706;2023-11-21T07:31:16;11.70;99.90
5017;DHT22;2527;50.892;16.706;2023-11-21T07:33:43;11.70;99.90
5017;DHT22;2527;50.892;16.706;2023-11-21T07:36:08;11.70;99.90
5017;DHT22;2527;50.892;16.706;2023-11-21T07:38:35;11.70;99.90
5017;DHT22;2527;50.892;16.706;2023-11-21T07:41:01;11.70;99.90
5017;DHT22;2527;50.892;16.706;2023-11-21T07:43:26;11.70;99.90
5017;DHT22;2527;50.892;16.706;2023-11-21T07:46:00;11.70;99.90
5017;DHT22;2527;50.892;16.706;2023-11-21T07:48:29;11.70;99.90
5017;DHT22;2527;50.892;16.706;2023-11-21T07:50:55;11.70;99.90
5017;DHT22;2527;50.892;16.706;2023-11-21T07:53:21;11.80;99.90
5017;DHT22;2527;50.892;16.706;2023-11-21T07:55:47;11.80;99.90
5017;DHT22;2527;50.892;16.706;2023-11-21T07:58:13;11.80;99.90
5017;DHT22;2527;50.892;16.706;2023-11-21T08:00:38;11.80;99.90
5017;DHT22;2527;50.892;16.706;2023-11-21T08:03:05;11.80;99.90
5017;DHT22;2527;50.892;16.706;2023-11-21T08:05:31;11.70;99.90
5017;DHT22;2527;50.892;16.706;2023-11-21T08:07:56;11.80;99.90
5017;DHT22;2527;50.892;16.706;2023-11-21T08:10:22;11.80;99.90
5017;DHT22;2527;50.892;16.706;2023-11-21T08:12:50;11.80;99.90
5017;DHT22;2527;50.892;16.706;2023-11-21T08:15:16;11.80;99.90
5017;DHT22;2527;50.892;16.706;2023-11-21T08:17:44;11.80;99.90
5017;DHT22;2527;50.892;16.706;2023-11-21T08:20:10;11.80;99.90
5017;DHT22;2527;50.892;16.706;2023-11-21T08:22:36;11.80;99.90
5017;DHT22;2527;50.892;16.706;2023-11-21T08:25:02;11.80;99.90
5017;DHT22;2527;50.892;16.706;2023-11-21T08:27:30;11.80;99.90
5017;DHT22;2527;50.892;16.706;2023-11-21T08:29:55;11.80;99.90
5017;DHT22;2527;50.892;16.706;2023-11-21T08:32:22;11.80;99.90
5017;DHT22;2527;50.892;16.706;2023-11-21T08:34:48;11.80;99.90
5017;DHT22;2527;50.892;16.706;2023-11-21T08:37:16;11.80;99.90
5017;DHT22;2527;50.892;16.706;2023-11-21T08:39:46;11.80;99.90
5017;DHT22;2527;50.892;16.706;2023-11-21T08:42:19;11.80;99.90
5017;DHT22;2527;50.892;16.706;2023-11-21T08:44:47;11.90;99.90
5017;DHT22;2527;50.892;16.706;2023-11-21T08:47:12;11.90;99.90
5017;DHT22;2527;50.892;16.706;2023-11-21T08:49:38;11.90;99.90
5017;DHT22;2527;50.892;16.706;2023-11-21T08:52:04;11.80;99.90
5017;DHT22;2527;50.892;16.706;2023-11-21T08:54:30;11.90;99.90
5017;DHT22;2527;50.892;16.706;2023-11-21T08:56:59;11.90;99.90
5017;DHT22;2527;50.892;16.706;2023-11-21T08:59:28;11.90;99.90
5017;DHT22;2527;50.892;16.706;2023-11-21T09:01:54;11.90;99.90
5017;DHT22;2527;50.892;16.706;2023-11-21T09:04:20;11.90;99.90
5017;DHT22;2527;50.892;16.706;2023-11-21T09:06:45;11.90;99.90
5017;DHT22;2527;50.892;16.706;2023-11-21T09:09:11;11.90;99.90
5017;DHT22;2527;50.892;16.706;2023-11-21T09:11:37;11.90;99.90
5017;DHT22;2527;50.892;16.706;2023-11-21T09:14:03;11.90;99.90
5017;DHT22;2527;50.892;16.706;2023-11-21T09:16:29;12.00;99.90
5017;DHT22;2527;50.892;16.706;2023-11-21T09:18:58;12.00;99.90
5017;DHT22;2527;50.892;16.706;2023-11-21T09:21:23;12.10;99.90
5017;DHT22;2527;50.892;16.706;2023-11-21T09:23:50;12.20;99.90
5017;DHT22;2527;50.892;16.706;2023-11-21T09:26:15;12.20;99.90
5017;DHT22;2527;50.892;16.706;2023-11-21T09:28:43;12.30;99.90
5017;DHT22;2527;50.892;16.706;2023-11-21T09:31:13;12.30;99.90
5017;DHT22;2527;50.892;16.706;2023-11-21T09:33:42;12.40;99.90
5017;DHT22;2527;50.892;16.706;2023-11-21T09:36:11;12.40;99.90
5017;DHT22;2527;50.892;16.706;2023-11-21T09:38:41;12.40;99.90
5017;DHT22;2527;50.892;16.706;2023-11-21T09:41:15;12.40;99.90
5017;DHT22;2527;50.892;16.706;2023-11-21T09:43:46;12.40;99.90
5017;DHT22;2527;50.892;16.706;2023-11-21T09:46:11;12.40;99.90
5017;DHT22;2527;50.892;16.706;2023-11-21T09:48:41;12.40;99.90
5017;DHT22;2527;50.892;16.706;2023-11-21T09:51:08;12.40;99.90
5017;DHT22;2527;50.892;16.706;2023-11-21T09:53:35;12.40;99.90
5017;DHT22;2527;50.892;16.706;2023-11-21T09:56:02;12.40;99.90
5017;DHT22;2527;50.892;16.706;2023-11-21T09:58:29;12.40;99.90
5017;DHT22;2527;50.892;16.706;2023-11-21T10:01:00;12.40;99.90
5017;DHT22;2527;50.892;16.706;2023-11-21T10:03:29;12.40;99.90
5017;DHT22;2527;50.892;16.706;2023-11-21T10:05:56;12.40;99.90
5017;DHT22;2527;50.892;16.706;2023-11-21T10:08:25;12.30;99.90
5017;DHT22;2527;50.892;16.706;2023-11-21T10:10:53;12.30;99.90
5017;DHT22;2527;50.892;16.706;2023-11-21T10:13:19;12.30;99.90
5017;DHT22;2527;50.892;16.706;2023-11-21T10:15:49;12.30;99.90
5017;DHT22;2527;50.892;16.706;2023-11-21T10:18:15;12.30;99.90
5017;DHT22;2527;50.892;16.706;2023-11-21T10:20:41;12.30;99.90
5017;DHT22;2527;50.892;16.706;2023-11-21T10:23:07;12.30;99.90
5017;DHT22;2527;50.892;16.706;2023-11-21T10:25:36;12.30;99.90
5017;DHT22;2527;50.892;16.706;2023-11-21T10:28:02;12.30;99.90
5017;DHT22;2527;50.892;16.706;2023-11-21T10:30:34;12.30;99.90
5017;DHT22;2527;50.892;16.706;2023-11-21T10:33:03;12.30;99.90
5017;DHT22;2527;50.892;16.706;2023-11-21T10:35:39;12.30;99.90
5017;DHT22;2527;50.892;16.706;2023-11-21T10:38:05;12.30;99.90
5017;DHT22;2527;50.892;16.706;2023-11-21T10:40:31;12.30;99.90
5017;DHT22;2527;50.892;16.706;2023-11-21T10:43:07;12.30;99.90
5017;DHT22;2527;50.892;16.706;2023-11-21T10:45:39;12.30;99.90
5017;DHT22;2527;50.892;16.706;2023-11-21T10:48:09;12.30;99.90
5017;DHT22;2527;50.892;16.706;2023-11-21T10:50:36;12.30;99.90
5017;DHT22;2527;50.892;16.706;2023-11-21T10:53:05;12.30;99.90
5017;DHT22;2527;50.892;16.706;2023-11-21T10:55:33;12.30;99.90
5017;DHT22;2527;50.892;16.706;2023-11-21T10:58:00;12.30;99.90
5017;DHT22;2527;50.892;16.706;2023-11-21T11:00:27;12.30;99.90
5017;DHT22;2527;50.892;16.706;2023-11-21T11:02:53;12.30;99.90
5017;DHT22;2527;50.892;16.706;2023-11-21T11:05:23;12.30;99.90
5017;DHT22;2527;50.892;16.706;2023-11-21T11:08:13;12.30;99.90
5017;DHT22;2527;50.892;16.706;2023-11-21T11:10:37;12.20;99.90
5017;DHT22;2527;50.892;16.706;2023-11-21T11:13:04;12.20;99.90
5017;DHT22;2527;50.892;16.706;2023-11-21T11:15:29;12.20;99.90
5017;DHT22;2527;50.892;16.706;2023-11-21T11:17:56;12.20;99.90
5017;DHT22;2527;50.892;16.706;2023-11-21T11:20:32;12.20;99.90
5017;DHT22;2527;50.892;16.706;2023-11-21T11:28:17;12.20;99.90
5017;DHT22;2527;50.892;16.706;2023-11-21T11:33:39;12.20;99.90
5017;DHT22;2527;50.892;16.706;2023-11-21T11:38:34;12.20;99.90
5017;DHT22;2527;50.892;16.706;2023-11-21T11:41:01;12.20;99.90
5017;DHT22;2527;50.892;16.706;2023-11-21T11:43:29;12.20;99.90
5017;DHT22;2527;50.892;16.706;2023-11-21T11:45:58;12.20;99.90
5017;DHT22;2527;50.892;16.706;2023-11-21T11:48:29;12.20;99.90
5017;DHT22;2527;50.892;16.706;2023-11-21T11:51:04;12.20;99.90
5017;DHT22;2527;50.892;16.706;2023-11-21T11:53:37;12.20;99.90
5017;DHT22;2527;50.892;16.706;2023-11-21T11:56:24;12.20;99.90
5017;DHT22;2527;50.892;16.706;2023-11-21T11:58:54;12.20;99.90
5017;DHT22;2527;50.892;16.706;2023-11-21T12:01:21;12.20;99.90
5017;DHT22;2527;50.892;16.706;2023-11-21T12:06:35;12.20;99.90
5017;DHT22;2527;50.892;16.706;2023-11-21T12:09:02;12.20;99.90
5017;DHT22;2527;50.892;16.706;2023-11-21T12:11:32;12.20;99.90
5017;DHT22;2527;50.892;16.706;2023-11-21T12:13:58;12.20;99.90
5017;DHT22;2527;50.892;16.706;2023-11-21T12:16:25;12.20;99.90
5017;DHT22;2527;50.892;16.706;2023-11-21T12:18:53;12.20;99.90
5017;DHT22;2527;50.892;16.706;2023-11-21T12:21:22;12.20;99.90
5017;DHT22;2527;50.892;16.706;2023-11-21T12:23:48;12.20;99.90
5017;DHT22;2527;50.892;16.706;2023-11-21T12:26:13;12.20;99.90
5017;DHT22;2527;50.892;16.706;2023-11-21T12:28:39;12.20;99.90
5017;DHT22;2527;50.892;16.706;2023-11-21T12:31:06;12.30;99.90
5017;DHT22;2527;50.892;16.706;2023-11-21T12:33:33;12.30;99.90
5017;DHT22;2527;50.892;16.706;2023-11-21T12:35:59;12.30;99.90
5017;DHT22;2527;50.892;16.706;2023-11-21T12:38:24;12.30;99.90
5017;DHT22;2527;50.892;16.706;2023-11-21T12:40:50;12.30;99.90
5017;DHT22;2527;50.892;16.706;2023-11-21T12:43:19;12.30;99.90
5017;DHT22;2527;50.892;16.706;2023-11-21T12:45:45;12.30;99.90
5017;DHT22;2527;50.892;16.706;2023-11-21T12:48:10;12.30;99.90
5017;DHT22;2527;50.892;16.706;2023-11-21T12:50:38;12.30;99.90
5017;DHT22;2527;50.892;16.706;2023-11-21T12:53:05;12.30;99.90
5017;DHT22;2527;50.892;16.706;2023-11-21T12:55:32;12.20;99.90
5017;DHT22;2527;50.892;16.706;2023-11-21T12:57:59;12.20;99.90
5017;DHT22;2527;50.892;16.706;2023-11-21T13:00:35;12.20;99.90
5017;DHT22;2527;50.892;16.706;2023-11-21T13:03:03;12.20;99.90
5017;DHT22;2527;50.892;16.706;2023-11-21T13:05:39;12.10;99.90
5017;DHT22;2527;50.892;16.706;2023-11-21T13:08:08;12.10;99.90
5017;DHT22;2527;50.892;16.706;2023-11-21T13:10:35;12.00;99.90
5017;DHT22;2527;50.892;16.706;2023-11-21T13:13:05;12.00;99.90
5017;DHT22;2527;50.892;16.706;2023-11-21T13:15:31;12.00;99.90
5017;DHT22;2527;50.892;16.706;2023-11-21T13:17:58;11.90;99.90
5017;DHT22;2527;50.892;16.706;2023-11-21T13:20:24;11.90;99.90
5017;DHT22;2527;50.892;16.706;2023-11-21T13:22:51;11.80;99.90
5017;DHT22;2527;50.892;16.706;2023-11-21T13:25:25;11.80;99.90
5017;DHT22;2527;50.892;16.706;2023-11-21T13:27:57;11.70;99.90
5017;DHT22;2527;50.892;16.706;2023-11-21T13:30:27;11.70;99.90
5017;DHT22;2527;50.892;16.706;2023-11-21T13:33:02;11.70;99.90
5017;DHT22;2527;50.892;16.706;2023-11-21T13:35:32;11.60;99.90
5017;DHT22;2527;50.892;16.706;2023-11-21T13:38:07;11.60;99.90
5017;DHT22;2527;50.892;16.706;2023-11-21T13:40:34;11.50;99.90
5017;DHT22;2527;50.892;16.706;2023-11-21T13:43:05;11.50;99.90
5017;DHT22;2527;50.892;16.706;2023-11-21T13:45:35;10.70;99.90
5017;DHT22;2527;50.892;16.706;2023-11-21T13:48:02;11.40;99.90
5017;DHT22;2527;50.892;16.706;2023-11-21T13:50:30;11.40;99.90
5017;DHT22;2527;50.892;16.706;2023-11-21T13:53:01;11.30;99.90
5017;DHT22;2527;50.892;16.706;2023-11-21T13:55:42;11.30;99.90
5017;DHT22;2527;50.892;16.706;2023-11-21T13:58:07;11.30;99.90
5017;DHT22;2527;50.892;16.706;2023-11-21T14:00:37;11.20;99.90
5017;DHT22;2527;50.892;16.706;2023-11-21T14:03:21;11.20;99.90
5017;DHT22;2527;50.892;16.706;2023-11-21T14:05:49;11.10;99.90
5017;DHT22;2527;50.892;16.706;2023-11-21T14:08:21;11.10;99.90
5017;DHT22;2527;50.892;16.706;2023-11-21T14:10:48;11.00;99.90
5017;DHT22;2527;50.892;16.706;2023-11-21T14:13:21;12.60;99.90
5017;DHT22;2527;50.892;16.706;2023-11-21T14:15:48;11.00;99.90
5017;DHT22;2527;50.892;16.706;2023-11-21T14:18:17;10.90;99.90
5017;DHT22;2527;50.892;16.706;2023-11-21T14:20:51;10.90;99.90
5017;DHT22;2527;50.892;16.706;2023-11-21T14:23:17;10.90;99.90
5017;DHT22;2527;50.892;16.706;2023-11-21T14:25:46;10.80;99.90
5017;DHT22;2527;50.892;16.706;2023-11-21T14:28:13;10.80;99.90
5017;DHT22;2527;50.892;16.706;2023-11-21T14:30:40;10.80;99.90
5017;DHT22;2527;50.892;16.706;2023-11-21T14:33:08;10.70;99.90
5017;DHT22;2527;50.892;16.706;2023-11-21T14:35:35;10.70;99.90
5017;DHT22;2527;50.892;16.706;2023-11-21T14:38:01;10.70;99.90
5017;DHT22;2527;50.892;16.706;2023-11-21T14:40:30;10.60;99.90
5017;DHT22;2527;50.892;16.706;2023-11-21T14:43:02;10.60;99.90
5017;DHT22;2527;50.892;16.706;2023-11-21T14:45:30;10.60;99.90
5017;DHT22;2527;50.892;16.706;2023-11-21T14:47:56;10.50;99.90
5017;DHT22;2527;50.892;16.706;2023-11-21T14:50:34;10.50;99.90
5017;DHT22;2527;50.892;16.706;2023-11-21T14:53:19;10.50;99.90
5017;DHT22;2527;50.892;16.706;2023-11-21T14:56:04;10.40;99.90
5017;DHT22;2527;50.892;16.706;2023-11-21T14:58:30;10.40;99.90
5017;DHT22;2527;50.892;16.706;2023-11-21T15:00:58;10.40;99.90
5017;DHT22;2527;50.892;16.706;2023-11-21T15:03:28;10.30;99.90
5017;DHT22;2527;50.892;16.706;2023-11-21T15:05:57;10.30;99.90
5017;DHT22;2527;50.892;16.706;2023-11-21T15:08:23;10.20;99.90
5017;DHT22;2527;50.892;16.706;2023-11-21T15:10:57;10.20;99.90
5017;DHT22;2527;50.892;16.706;2023-11-21T15:13:23;10.20;99.90
5017;DHT22;2527;50.892;16.706;2023-11-21T15:15:50;10.10;99.90
5017;DHT22;2527;50.892;16.706;2023-11-21T15:18:16;10.10;99.90
5017;DHT22;2527;50.892;16.706;2023-11-21T15:20:41;10.10;99.90
5017;DHT22;2527;50.892;16.706;2023-11-21T15:23:08;10.00;99.90
5017;DHT22;2527;50.892;16.706;2023-11-21T15:25:34;10.00;99.90
5017;DHT22;2527;50.892;16.706;2023-11-21T15:28:01;10.00;99.90
5017;DHT22;2527;50.892;16.706;2023-11-21T15:30:28;9.90;99.90
5017;DHT22;2527;50.892;16.706;2023-11-21T15:33:00;9.90;99.90
5017;DHT22;2527;50.892;16.706;2023-11-21T15:35:25;9.90;99.90
5017;DHT22;2527;50.892;16.706;2023-11-21T15:37:53;9.90;99.90
5017;DHT22;2527;50.892;16.706;2023-11-21T15:40:19;9.90;99.90
5017;DHT22;2527;50.892;16.706;2023-11-21T15:42:45;9.80;99.90
5017;DHT22;2527;50.892;16.706;2023-11-21T15:45:11;9.80;99.90
5017;DHT22;2527;50.892;16.706;2023-11-21T15:47:37;9.80;99.90
5017;DHT22;2527;50.892;16.706;2023-11-21T15:50:03;9.80;99.90
5017;DHT22;2527;50.892;16.706;2023-11-21T15:52:32;9.70;99.90
5017;DHT22;2527;50.892;16.706;2023-11-21T15:55:00;9.70;99.90
5017;DHT22;2527;50.892;16.706;2023-11-21T15:57:26;9.70;99.90
5017;DHT22;2527;50.892;16.706;2023-11-21T15:59:52;9.60;99.90
5017;DHT22;2527;50.892;16.706;2023-11-21T16:02:18;9.60;99.90